Time;durP1;ratioP1;P1;durP2;ratioP2;P2;SDS_P1;SDS_P2;PMS_P1;PMS_P2;Temp;Humidity;BMP_temperature;BMP_pressure;BME280_temperature;BME280_humidity;BME280_pressure;Samples;Min_cycle;Max_cycle;Signal;HPM_P1;HPM_P2
2022/07/29 00:01:41;;;;;;;6.00;2.00;;;17.60;99.90;;;;;;4956224;29;20230;-77
2022/07/29 00:04:08;;;;;;;4.80;2.27;;;17.60;99.90;;;;;;4956158;29;20222;-77
2022/07/29 00:06:35;;;;;;;3.70;2.20;;;17.50;99.90;;;;;;4955972;29;20699;-77
2022/07/29 00:09:02;;;;;;;5.23;2.20;;;17.50;99.90;;;;;;4956051;29;20241;-77
2022/07/29 00:11:29;;;;;;;3.63;1.90;;;17.40;99.90;;;;;;4955721;29;20286;-77
2022/07/29 00:13:56;;;;;;;4.90;1.90;;;17.30;99.90;;;;;;4956238;29;20290;-77
2022/07/29 00:16:24;;;;;;;3.80;2.20;;;17.30;99.90;;;;;;4955935;29;20242;-77
2022/07/29 00:18:51;;;;;;;4.70;1.87;;;17.20;99.90;;;;;;4955960;29;20314;-77
2022/07/29 00:21:18;;;;;;;2.53;1.90;;;17.20;99.90;;;;;;4955633;29;20249;-77
2022/07/29 00:23:45;;;;;;;4.70;1.97;;;17.20;99.90;;;;;;4955733;29;20249;-77
2022/07/29 00:26:12;;;;;;;5.13;2.23;;;17.20;99.90;;;;;;4955049;28;20235;-77
2022/07/29 00:28:38;;;;;;;4.53;2.00;;;17.10;99.90;;;;;;4955753;29;20262;-77
2022/07/29 00:31:05;;;;;;;4.57;2.03;;;17.20;99.90;;;;;;4955401;29;20290;-77
2022/07/29 00:33:34;;;;;;;6.00;1.87;;;17.10;99.90;;;;;;4955307;29;20313;-77
2022/07/29 00:35:59;;;;;;;3.47;1.93;;;17.10;99.90;;;;;;4955868;29;20235;-77
2022/07/29 00:38:26;;;;;;;3.20;1.70;;;17.20;99.90;;;;;;4955144;29;20305;-77
2022/07/29 00:40:53;;;;;;;3.13;1.90;;;17.20;99.90;;;;;;4955272;29;20238;-77
2022/07/29 00:43:20;;;;;;;2.70;2.20;;;17.30;99.90;;;;;;4955374;29;20238;-77
2022/07/29 00:45:47;;;;;;;3.90;2.13;;;17.30;99.90;;;;;;4955365;29;21022;-77
2022/07/29 00:48:14;;;;;;;3.53;2.20;;;17.30;99.90;;;;;;4955177;29;20250;-77
2022/07/29 00:50:42;;;;;;;3.23;1.93;;;17.20;99.90;;;;;;4955356;28;20244;-77
2022/07/29 00:53:09;;;;;;;4.43;2.30;;;17.20;99.90;;;;;;4955109;29;20730;-77
2022/07/29 00:55:37;;;;;;;2.60;2.20;;;17.10;99.90;;;;;;4954623;29;20238;-77
2022/07/29 00:58:04;;;;;;;4.20;2.17;;;17.10;99.90;;;;;;4955098;29;20266;-77
2022/07/29 01:00:31;;;;;;;2.30;2.10;;;17.10;99.90;;;;;;4971213;28;20729;-77
2022/07/29 01:02:59;;;;;;;2.73;1.90;;;17.10;99.90;;;;;;4974236;28;20237;-77
2022/07/29 01:05:28;;;;;;;3.70;2.13;;;17.10;99.90;;;;;;4974089;28;20238;-77
2022/07/29 01:07:58;;;;;;;2.80;1.90;;;17.20;99.90;;;;;;4956771;28;20257;-77
2022/07/29 01:10:26;;;;;;;4.43;2.10;;;17.10;99.90;;;;;;4974158;28;20729;-77
2022/07/29 01:12:55;;;;;;;4.83;2.03;;;17.20;99.90;;;;;;4974154;28;20689;-77
2022/07/29 01:15:22;;;;;;;3.70;1.97;;;17.20;99.90;;;;;;4974118;28;20230;-77
2022/07/29 01:17:58;;;;;;;4.00;1.97;;;17.30;99.90;;;;;;4973930;28;20285;-77
2022/07/29 01:20:30;;;;;;;6.10;2.10;;;17.30;99.90;;;;;;4974701;28;20264;-77
2022/07/29 01:23:54;;;;;;;4.13;2.00;;;17.40;99.90;;;;;;4973795;28;20238;-77
2022/07/29 01:26:42;;;;;;;2.93;1.90;;;17.40;99.90;;;;;;4931792;29;20764;-77
2022/07/29 01:29:17;;;;;;;3.53;1.80;;;17.40;99.90;;;;;;4933317;29;20218;-77
2022/07/29 01:31:49;;;;;;;2.57;2.03;;;17.50;99.90;;;;;;4933430;29;20242;-77
2022/07/29 01:34:22;;;;;;;3.70;1.90;;;17.40;99.90;;;;;;4933447;29;20290;-77
2022/07/29 01:36:56;;;;;;;4.73;1.90;;;17.40;99.90;;;;;;4933679;29;20215;-77
2022/07/29 01:39:28;;;;;;;4.67;1.90;;;17.40;99.90;;;;;;4937196;29;20208;-77
2022/07/29 01:42:00;;;;;;;3.53;2.00;;;17.40;99.90;;;;;;4937120;29;20270;-77
2022/07/29 01:44:35;;;;;;;5.70;1.90;;;17.40;99.90;;;;;;4937365;29;20673;-77
2022/07/29 01:47:10;;;;;;;3.47;2.10;;;17.40;99.90;;;;;;4918417;29;20703;-77
2022/07/29 01:49:40;;;;;;;4.37;1.90;;;17.40;99.90;;;;;;4918133;29;20246;-77
2022/07/29 01:52:16;;;;;;;3.03;2.10;;;17.50;99.90;;;;;;4917714;29;20204;-77
2022/07/29 01:54:48;;;;;;;3.10;2.13;;;17.50;99.90;;;;;;4917541;29;20720;-77
2022/07/29 01:57:18;;;;;;;2.50;1.90;;;17.50;99.90;;;;;;4937325;29;20289;-77
2022/07/29 01:59:48;;;;;;;5.40;1.90;;;17.40;99.90;;;;;;4958203;28;20253;-77
2022/07/29 02:02:17;;;;;;;2.90;2.00;;;17.50;99.90;;;;;;4958587;29;20253;-77
2022/07/29 02:04:48;;;;;;;3.23;2.13;;;17.40;99.90;;;;;;4958419;29;20242;-78
2022/07/29 02:07:18;;;;;;;5.90;2.00;;;17.50;99.90;;;;;;4957773;29;20203;-77
2022/07/29 02:09:46;;;;;;;3.77;1.93;;;17.50;99.90;;;;;;4957981;29;20294;-77
2022/07/29 02:12:15;;;;;;;5.90;2.20;;;17.60;99.90;;;;;;4957832;29;20243;-77
2022/07/29 02:14:48;;;;;;;4.23;2.20;;;17.60;99.90;;;;;;4958448;29;20285;-77
2022/07/29 02:17:21;;;;;;;5.67;2.40;;;17.60;99.90;;;;;;4957506;29;20234;-77
2022/07/29 02:19:49;;;;;;;3.90;1.93;;;17.60;99.90;;;;;;4938848;29;20747;-77
2022/07/29 02:22:19;;;;;;;3.27;2.10;;;17.60;99.90;;;;;;4938656;29;20302;-77
2022/07/29 02:24:48;;;;;;;3.20;2.03;;;17.70;99.90;;;;;;4938805;29;20265;-77
2022/07/29 02:27:16;;;;;;;4.03;2.30;;;17.70;99.90;;;;;;4938842;29;20252;-77
2022/07/29 02:29:44;;;;;;;4.13;2.03;;;17.70;99.90;;;;;;4938958;29;20605;-77
2022/07/29 02:32:14;;;;;;;2.43;1.90;;;17.60;99.90;;;;;;4938765;29;20218;-77
2022/07/29 02:34:42;;;;;;;4.57;2.10;;;17.60;99.90;;;;;;4938855;29;20588;-77
2022/07/29 02:37:10;;;;;;;3.17;2.20;;;17.60;99.90;;;;;;4938414;29;20306;-77
2022/07/29 02:39:39;;;;;;;3.50;1.90;;;17.60;99.90;;;;;;4938342;29;20292;-77
2022/07/29 02:42:10;;;;;;;4.83;1.97;;;17.60;99.90;;;;;;4938578;29;20235;-77
2022/07/29 02:44:38;;;;;;;4.33;1.90;;;17.60;99.90;;;;;;4938610;29;20246;-77
2022/07/29 02:47:11;;;;;;;3.67;1.90;;;17.70;99.90;;;;;;4938472;29;20212;-77
2022/07/29 02:49:46;;;;;;;4.63;1.97;;;17.70;99.90;;;;;;4938212;29;20235;-77
2022/07/29 02:52:19;;;;;;;3.50;1.97;;;17.70;99.90;;;;;;4937705;29;20625;-77
2022/07/29 02:54:52;;;;;;;3.87;1.80;;;17.70;99.90;;;;;;4938400;29;20204;-77
2022/07/29 02:57:23;;;;;;;3.00;2.13;;;17.70;99.90;;;;;;4937908;29;20266;-77
2022/07/29 02:59:53;;;;;;;2.83;1.90;;;17.70;99.90;;;;;;4938038;29;20283;-77
2022/07/29 03:02:22;;;;;;;3.00;2.17;;;17.70;99.90;;;;;;4937874;29;20239;-77
2022/07/29 03:04:53;;;;;;;2.23;1.77;;;17.70;99.90;;;;;;4937811;29;20203;-77
2022/07/29 03:07:21;;;;;;;4.57;2.03;;;17.70;99.90;;;;;;4937853;29;20243;-77
2022/07/29 03:09:50;;;;;;;2.37;1.80;;;17.70;99.90;;;;;;4937909;29;20290;-77
2022/07/29 03:12:17;;;;;;;4.37;2.00;;;17.80;99.90;;;;;;4938088;29;20290;-77
2022/07/29 03:14:46;;;;;;;3.60;1.90;;;17.90;99.90;;;;;;4938213;29;20212;-77
2022/07/29 03:17:13;;;;;;;4.80;2.00;;;18.00;99.90;;;;;;4937841;29;20203;-77
2022/07/29 03:19:40;;;;;;;4.07;2.00;;;18.10;99.90;;;;;;4937480;29;20283;-77
2022/07/29 03:22:10;;;;;;;3.10;1.90;;;18.10;99.90;;;;;;4937911;29;20207;-77
2022/07/29 03:24:38;;;;;;;4.10;2.10;;;18.20;99.90;;;;;;4937526;29;20238;-76
2022/07/29 03:27:06;;;;;;;4.47;2.00;;;18.30;99.90;;;;;;4937728;29;20247;-77
2022/07/29 03:29:33;;;;;;;2.60;1.90;;;18.30;99.90;;;;;;4937641;29;20235;-77
2022/07/29 03:32:00;;;;;;;4.20;1.80;;;18.30;99.90;;;;;;4937507;29;20239;-77
2022/07/29 03:34:27;;;;;;;3.17;1.80;;;18.30;99.90;;;;;;4936870;29;20588;-77
2022/07/29 03:36:54;;;;;;;3.47;2.03;;;18.30;99.90;;;;;;4937596;29;20294;-77
2022/07/29 03:39:26;;;;;;;5.13;1.90;;;18.30;99.90;;;;;;4937377;29;20691;-77
2022/07/29 03:41:56;;;;;;;3.97;1.97;;;18.30;99.90;;;;;;4937302;29;20243;-77
2022/07/29 03:44:25;;;;;;;3.30;1.93;;;18.30;99.90;;;;;;4937495;29;20231;-77
2022/07/29 03:46:54;;;;;;;3.53;1.90;;;18.30;99.90;;;;;;4937367;29;20288;-77
2022/07/29 03:49:22;;;;;;;6.23;2.17;;;18.40;99.90;;;;;;4937087;29;20203;-77
2022/07/29 03:51:49;;;;;;;6.47;2.07;;;18.40;99.90;;;;;;4937384;29;20254;-77
2022/07/29 03:54:16;;;;;;;4.43;2.00;;;18.40;99.90;;;;;;4937018;29;20231;-77
2022/07/29 03:56:47;;;;;;;3.97;2.13;;;18.40;99.90;;;;;;4937867;29;20235;-77
2022/07/29 03:59:16;;;;;;;3.50;1.93;;;18.40;99.90;;;;;;4956101;28;20322;-77
2022/07/29 04:01:44;;;;;;;3.73;1.90;;;18.50;99.90;;;;;;4955872;29;20257;-77
2022/07/29 04:04:11;;;;;;;3.10;1.90;;;18.50;99.90;;;;;;4956072;29;20656;-77
2022/07/29 04:06:40;;;;;;;4.47;2.00;;;18.40;99.90;;;;;;4955993;29;20298;-77
2022/07/29 04:09:07;;;;;;;8.33;1.90;;;18.50;99.90;;;;;;4956029;29;20211;-77
2022/07/29 04:11:34;;;;;;;4.20;1.80;;;18.40;99.90;;;;;;4956033;29;20266;-77
2022/07/29 04:14:02;;;;;;;3.87;1.77;;;18.40;99.90;;;;;;4955858;29;20313;-77
2022/07/29 04:16:29;;;;;;;2.60;1.70;;;18.40;99.90;;;;;;4955505;29;20314;-77
2022/07/29 04:18:56;;;;;;;3.90;1.80;;;18.30;99.90;;;;;;4955593;29;20675;-77
2022/07/29 04:21:23;;;;;;;2.03;1.60;;;18.30;99.90;;;;;;4955734;29;20239;-77
2022/07/29 04:23:50;;;;;;;4.30;1.90;;;18.20;99.90;;;;;;4955662;29;20675;-77
2022/07/29 04:26:17;;;;;;;3.63;1.80;;;18.20;99.90;;;;;;4955621;29;20211;-77
2022/07/29 04:28:45;;;;;;;2.00;1.80;;;18.20;99.90;;;;;;4955874;29;20242;-77
2022/07/29 04:31:14;;;;;;;2.27;1.70;;;18.20;99.90;;;;;;4955763;29;20262;-77
2022/07/29 04:33:41;;;;;;;2.83;1.83;;;18.30;99.90;;;;;;4955378;29;20269;-77
2022/07/29 04:36:08;;;;;;;3.83;1.70;;;18.20;99.90;;;;;;4955510;29;20234;-78
2022/07/29 04:38:35;;;;;;;5.50;1.80;;;18.20;99.90;;;;;;4955580;29;20595;-77
2022/07/29 04:41:02;;;;;;;4.73;1.80;;;18.20;99.90;;;;;;4955370;29;20203;-77
2022/07/29 04:43:29;;;;;;;2.77;2.00;;;18.20;99.90;;;;;;4955596;29;20237;-77
2022/07/29 04:45:56;;;;;;;3.77;1.87;;;18.10;99.90;;;;;;4954598;29;20679;-77
2022/07/29 04:48:24;;;;;;;3.20;1.60;;;18.10;99.90;;;;;;4955378;29;20203;-77
2022/07/29 04:50:51;;;;;;;2.50;1.70;;;18.00;99.90;;;;;;4955411;29;20235;-77
2022/07/29 04:53:18;;;;;;;5.13;2.03;;;18.00;99.90;;;;;;4955476;29;20231;-77
2022/07/29 04:55:45;;;;;;;3.40;1.70;;;18.00;99.90;;;;;;4955175;29;20746;-77
2022/07/29 04:58:12;;;;;;;2.67;1.90;;;17.90;99.90;;;;;;4942283;29;20635;-77
2022/07/29 05:00:40;;;;;;;4.70;2.00;;;17.90;99.90;;;;;;4952645;29;20277;-77
2022/07/29 05:03:07;;;;;;;3.07;2.00;;;17.90;99.90;;;;;;4954985;29;20265;-78
2022/07/29 05:05:35;;;;;;;3.67;1.90;;;17.90;99.90;;;;;;4954893;29;20679;-78
2022/07/29 05:08:02;;;;;;;2.33;1.90;;;18.00;99.90;;;;;;4955000;29;20290;-77
2022/07/29 05:10:29;;;;;;;4.30;2.07;;;18.10;99.90;;;;;;4955090;29;20238;-77
2022/07/29 05:12:56;;;;;;;4.47;1.70;;;18.10;99.90;;;;;;4954071;29;20307;-77
2022/07/29 05:15:23;;;;;;;2.13;1.73;;;18.20;99.90;;;;;;4954550;29;20335;-77
2022/07/29 05:17:50;;;;;;;3.70;1.83;;;18.30;99.90;;;;;;4955094;29;20924;-77
2022/07/29 05:20:18;;;;;;;3.57;1.83;;;18.40;99.90;;;;;;4954751;29;20290;-76
2022/07/29 05:22:46;;;;;;;3.37;2.00;;;18.50;99.90;;;;;;4955211;29;20208;-77
2022/07/29 05:25:13;;;;;;;3.60;1.90;;;18.70;99.90;;;;;;4954901;29;20231;-77
2022/07/29 05:27:40;;;;;;;3.57;2.10;;;18.70;99.90;;;;;;4954595;29;20323;-77
2022/07/29 05:30:08;;;;;;;3.23;1.93;;;18.90;99.90;;;;;;4954367;29;20257;-77
2022/07/29 05:32:35;;;;;;;4.70;1.67;;;18.90;99.90;;;;;;4954977;29;20246;-77
2022/07/29 05:35:02;;;;;;;2.90;1.70;;;19.00;99.90;;;;;;4954492;29;20671;-77
2022/07/29 05:37:29;;;;;;;1.98;1.60;;;19.10;99.90;;;;;;4954486;29;20642;-77
2022/07/29 05:39:57;;;;;;;3.95;1.80;;;19.10;99.90;;;;;;4955182;29;20241;-77
2022/07/29 05:42:24;;;;;;;2.03;1.75;;;19.10;99.90;;;;;;4954448;29;20293;-77
2022/07/29 05:44:51;;;;;;;3.55;1.90;;;19.10;99.90;;;;;;4954475;29;20199;-77
2022/07/29 05:47:18;;;;;;;4.07;1.92;;;19.00;99.90;;;;;;4954837;29;20249;-77
2022/07/29 05:49:45;;;;;;;4.90;1.98;;;19.00;99.90;;;;;;4954717;29;20246;-77
2022/07/29 05:52:13;;;;;;;4.82;2.00;;;19.00;99.90;;;;;;4954446;29;20294;-77
2022/07/29 05:54:40;;;;;;;5.78;2.22;;;19.00;99.90;;;;;;4954690;29;20238;-77
2022/07/29 05:57:08;;;;;;;4.55;2.13;;;19.00;99.90;;;;;;4954430;29;20215;-77
2022/07/29 05:59:36;;;;;;;4.03;2.00;;;19.10;99.90;;;;;;4953873;28;20330;-77
2022/07/29 06:02:04;;;;;;;5.50;2.30;;;19.10;99.90;;;;;;4954436;29;20229;-77
2022/07/29 06:04:31;;;;;;;6.15;2.30;;;19.10;99.90;;;;;;4954622;29;20200;-77
2022/07/29 06:06:58;;;;;;;3.22;2.00;;;19.10;99.90;;;;;;4954594;29;20242;-77
2022/07/29 06:09:25;;;;;;;3.47;2.10;;;19.20;99.90;;;;;;4954402;29;20691;-77
2022/07/29 06:11:53;;;;;;;2.65;2.10;;;19.30;99.90;;;;;;4954334;29;20199;-77
2022/07/29 06:14:21;;;;;;;4.43;1.90;;;19.40;99.90;;;;;;4953915;29;20695;-77
2022/07/29 06:16:48;;;;;;;3.60;1.90;;;19.40;99.90;;;;;;4954206;29;20306;-77
2022/07/29 06:19:15;;;;;;;4.53;1.85;;;19.40;99.90;;;;;;4954535;29;20739;-77
2022/07/29 06:21:43;;;;;;;6.85;2.10;;;19.60;99.90;;;;;;4954089;29;20675;-77
2022/07/29 06:24:11;;;;;;;4.68;1.90;;;19.80;99.90;;;;;;4956882;28;20199;-77
2022/07/29 06:26:39;;;;;;;3.95;1.90;;;20.00;99.90;;;;;;4957896;29;20584;-77
2022/07/29 06:29:06;;;;;;;6.50;2.00;;;21.10;99.90;;;;;;4957596;29;20211;-77
2022/07/29 06:31:34;;;;;;;4.78;2.03;;;21.50;99.90;;;;;;4958104;29;20298;-77
2022/07/29 06:34:01;;;;;;;4.53;1.80;;;22.40;99.90;;;;;;4957858;29;20262;-77
2022/07/29 06:36:28;;;;;;;4.18;1.92;;;22.40;99.90;;;;;;4957687;29;20675;-77
2022/07/29 06:38:55;;;;;;;4.30;2.08;;;22.00;99.90;;;;;;4957595;29;20694;-77
2022/07/29 06:41:22;;;;;;;3.45;1.60;;;22.00;99.90;;;;;;4957553;29;20234;-78
2022/07/29 06:43:51;;;;;;;5.57;1.75;;;22.00;99.90;;;;;;4957297;29;20286;-77
2022/07/29 06:46:19;;;;;;;5.78;2.10;;;21.70;99.90;;;;;;4957662;29;20636;-78
2022/07/29 06:48:48;;;;;;;3.97;2.10;;;21.70;99.90;;;;;;4957285;29;20238;-77
2022/07/29 06:51:16;;;;;;;5.57;2.33;;;21.90;99.90;;;;;;4957674;29;20203;-78
2022/07/29 06:53:43;;;;;;;5.93;1.80;;;22.10;99.90;;;;;;4957081;29;20258;-78
2022/07/29 06:56:12;;;;;;;3.35;1.92;;;22.20;99.90;;;;;;4957474;29;20267;-77
2022/07/29 06:58:39;;;;;;;4.85;1.90;;;22.30;99.90;;;;;;4957943;28;20637;-78
2022/07/29 07:01:07;;;;;;;4.05;1.90;;;22.30;99.90;;;;;;4976582;28;20245;-78
2022/07/29 07:03:34;;;;;;;3.72;1.80;;;22.50;99.90;;;;;;4976715;28;20234;-78
2022/07/29 07:06:03;;;;;;;2.13;1.67;;;22.80;99.90;;;;;;4976268;28;20237;-77
2022/07/29 07:08:30;;;;;;;3.63;1.67;;;22.80;99.90;;;;;;4976453;28;20705;-77
2022/07/29 07:10:57;;;;;;;4.88;1.70;;;22.90;99.90;;;;;;4976071;28;20262;-77
2022/07/29 07:13:24;;;;;;;6.22;2.00;;;23.00;99.90;;;;;;4976427;28;20241;-78
2022/07/29 07:15:51;;;;;;;4.55;2.30;;;23.10;99.90;;;;;;4976322;28;20313;-77
2022/07/29 07:18:19;;;;;;;6.28;1.85;;;23.40;99.90;;;;;;4976052;28;20221;-78
2022/07/29 07:20:47;;;;;;;3.85;1.73;;;24.40;99.90;;;;;;4976133;28;20618;-78
2022/07/29 07:23:15;;;;;;;2.63;1.80;;;27.10;99.90;;;;;;4976124;28;20202;-78
2022/07/29 07:25:42;;;;;;;2.95;1.48;;;28.90;99.90;;;;;;4975985;28;20222;-78
2022/07/29 07:28:09;;;;;;;6.18;1.58;;;29.90;99.90;;;;;;4976131;28;20303;-77
2022/07/29 07:30:37;;;;;;;5.03;1.58;;;30.10;99.90;;;;;;4976459;28;20252;-78
2022/07/29 07:33:04;;;;;;;2.03;1.67;;;30.70;99.90;;;;;;4976262;28;20614;-77
2022/07/29 07:35:31;;;;;;;4.57;1.50;;;30.80;99.90;;;;;;4974914;28;20222;-77
2022/07/29 07:37:58;;;;;;;4.40;1.63;;;30.40;99.90;;;;;;4975770;28;20634;-78
2022/07/29 07:40:26;;;;;;;3.35;1.75;;;30.20;92.40;;;;;;4975451;28;20253;-78
2022/07/29 07:42:53;;;;;;;7.20;1.63;;;30.20;77.20;;;;;;4975665;28;20202;-74
2022/07/29 07:45:20;;;;;;;4.35;1.63;;;29.20;75.20;;;;;;4975416;28;20236;-74
2022/07/29 07:47:47;;;;;;;6.35;1.65;;;29.00;81.60;;;;;;4975398;28;20253;-75
2022/07/29 07:50:16;;;;;;;2.85;1.58;;;30.00;59.70;;;;;;4975114;28;20289;-75
2022/07/29 07:52:51;;;;;;;4.50;1.70;;;30.80;48.10;;;;;;4975640;28;20596;-75
2022/07/29 07:55:19;;;;;;;3.25;1.70;;;29.90;41.70;;;;;;4974799;28;20230;-75
2022/07/29 07:57:48;;;;;;;3.47;1.70;;;29.30;40.60;;;;;;4974942;28;20249;-75
2022/07/29 08:00:16;;;;;;;3.80;1.75;;;29.40;52.30;;;;;;4974858;28;20718;-74
2022/07/29 08:02:44;;;;;;;3.92;1.50;;;29.80;36.80;;;;;;4975539;28;20234;-75
2022/07/29 08:05:15;;;;;;;2.28;1.60;;;30.40;26.10;;;;;;4975086;28;20205;-75
2022/07/29 08:07:42;;;;;;;4.38;1.73;;;31.30;21.40;;;;;;4975123;28;20202;-75
2022/07/29 08:10:09;;;;;;;3.55;1.50;;;31.20;13.30;;;;;;4974961;28;20569;-75
2022/07/29 08:12:37;;;;;;;5.43;1.63;;;31.10;11.30;;;;;;4975490;28;20261;-75
2022/07/29 08:15:07;;;;;;;3.50;1.80;;;30.90;14.70;;;;;;4975066;28;20258;-75
2022/07/29 08:17:34;;;;;;;3.75;1.70;;;30.60;14.90;;;;;;4975082;28;20237;-75
2022/07/29 08:20:01;;;;;;;3.88;1.52;;;30.60;5.50;;;;;;4974863;28;20298;-74
2022/07/29 08:22:28;;;;;;;5.90;1.60;;;31.20;2.80;;;;;;4974912;28;20209;-75
2022/07/29 08:24:55;;;;;;;4.00;1.88;;;31.00;8.90;;;;;;4974428;28;20237;-75
2022/07/29 08:27:22;;;;;;;5.05;1.80;;;30.80;7.20;;;;;;4974940;28;20285;-75
2022/07/29 08:29:49;;;;;;;4.45;1.63;;;30.60;5.80;;;;;;4974636;28;20294;-75
2022/07/29 08:32:18;;;;;;;5.97;1.70;;;30.00;10.10;;;;;;4974751;28;20241;-75
2022/07/29 08:34:46;;;;;;;2.88;1.50;;;29.40;14.80;;;;;;4974593;28;20785;-74
2022/07/29 08:37:13;;;;;;;4.95;1.80;;;28.30;13.70;;;;;;4974442;28;20257;-75
2022/07/29 08:39:40;;;;;;;2.70;1.60;;;27.70;28.00;;;;;;4974743;28;20233;-75
2022/07/29 08:42:09;;;;;;;2.95;1.60;;;28.50;27.20;;;;;;4974624;28;20210;-75
2022/07/29 08:44:37;;;;;;;2.50;1.70;;;28.70;23.10;;;;;;4974289;28;20198;-74
2022/07/29 08:47:04;;;;;;;3.95;1.70;;;27.90;24.50;;;;;;4974228;28;20202;-75
2022/07/29 08:49:34;;;;;;;2.50;1.80;;;27.10;38.20;;;;;;4974554;28;20203;-74
2022/07/29 08:52:01;;;;;;;4.57;1.73;;;26.90;46.80;;;;;;4974168;28;20293;-74
2022/07/29 08:54:28;;;;;;;2.60;1.55;;;26.60;54.60;;;;;;4973948;28;20226;-74
2022/07/29 08:56:56;;;;;;;4.63;1.80;;;27.10;55.20;;;;;;4971477;28;20249;-74
2022/07/29 08:59:26;;;;;;;4.38;1.55;;;26.90;50.90;;;;;;4954837;29;20358;-74
2022/07/29 09:01:54;;;;;;;4.65;1.48;;;26.80;54.10;;;;;;4954680;29;20207;-75
2022/07/29 09:04:24;;;;;;;8.38;1.92;;;27.30;56.60;;;;;;4955133;29;20200;-74
2022/07/29 09:06:55;;;;;;;4.78;1.75;;;28.00;59.80;;;;;;4954514;29;20199;-75
2022/07/29 09:09:22;;;;;;;3.15;1.80;;;28.40;52.00;;;;;;4955014;29;20203;-75
2022/07/29 09:11:49;;;;;;;5.13;1.70;;;28.40;40.10;;;;;;4954832;29;20294;-75
2022/07/29 09:14:16;;;;;;;3.25;1.73;;;28.40;37.90;;;;;;4954504;29;20234;-75
2022/07/29 09:16:49;;;;;;;2.67;1.48;;;28.50;32.40;;;;;;4954527;29;20289;-75
2022/07/29 09:19:30;;;;;;;3.80;1.60;;;28.20;28.10;;;;;;4954705;29;20209;-74
2022/07/29 09:22:00;;;;;;;4.93;1.63;;;27.90;24.30;;;;;;4954174;29;20294;-74
2022/07/29 09:24:43;;;;;;;2.50;1.60;;;27.50;35.60;;;;;;4954417;29;20247;-75
2022/07/29 09:27:21;;;;;;;3.22;1.60;;;27.80;35.80;;;;;;4952622;29;20303;-74
2022/07/29 09:29:55;;;;;;;3.42;1.50;;;28.10;31.50;;;;;;4954231;29;20738;-75
2022/07/29 09:32:22;;;;;;;2.53;1.90;;;28.10;26.70;;;;;;4954400;29;20741;-75
2022/07/29 09:34:49;;;;;;;4.25;1.92;;;27.40;25.40;;;;;;4954468;29;20231;-75
2022/07/29 09:37:28;;;;;;;4.30;1.92;;;27.50;29.50;;;;;;4954408;29;20226;-75
2022/07/29 09:39:56;;;;;;;1.83;1.52;;;27.40;25.10;;;;;;4954608;29;20238;-75
2022/07/29 09:42:32;;;;;;;5.65;1.70;;;27.60;26.40;;;;;;4954619;29;20262;-75
2022/07/29 09:44:59;;;;;;;2.92;1.60;;;28.10;31.30;;;;;;4954423;29;20203;-74
2022/07/29 09:47:44;;;;;;;5.82;1.90;;;28.70;24.90;;;;;;4954602;29;20235;-74
2022/07/29 09:50:12;;;;;;;5.93;1.70;;;29.00;17.90;;;;;;4953715;29;20722;-75
2022/07/29 09:52:49;;;;;;;4.47;2.10;;;29.70;8.10;;;;;;4954389;29;20250;-75
2022/07/29 09:55:17;;;;;;;2.28;1.50;;;29.90;16.40;;;;;;4954458;29;20230;-75
2022/07/29 09:57:45;;;;;;;2.78;2.42;;;30.00;7.50;;;;;;4954445;28;20673;-75
2022/07/29 10:00:14;;;;;;;5.95;2.72;;;29.40;6.30;;;;;;4958004;29;20322;-75
2022/07/29 10:02:44;;;;;;;5.90;2.08;;;28.20;16.60;;;;;;4958361;29;20297;-75
2022/07/29 10:05:20;;;;;;;5.57;1.80;;;27.80;27.00;;;;;;4957925;29;20209;-74
2022/07/29 10:07:50;;;;;;;2.60;1.50;;;27.50;27.80;;;;;;4957818;29;20203;-74
2022/07/29 10:10:22;;;;;;;2.47;1.65;;;27.50;22.60;;;;;;4958129;29;20235;-74
2022/07/29 10:12:51;;;;;;;3.83;1.65;;;27.80;27.70;;;;;;4958170;29;20670;-75
2022/07/29 10:15:19;;;;;;;4.65;1.65;;;27.70;22.30;;;;;;4957786;29;20325;-75
2022/07/29 10:17:46;;;;;;;2.45;1.63;;;28.00;24.10;;;;;;4957869;29;20207;-74
2022/07/29 10:20:14;;;;;;;4.30;1.85;;;27.60;20.90;;;;;;4957550;29;20302;-75
2022/07/29 10:22:41;;;;;;;3.03;1.60;;;27.70;26.90;;;;;;4957683;29;20207;-75
2022/07/29 10:25:10;;;;;;;4.20;1.80;;;27.60;27.40;;;;;;4957828;29;20234;-75
2022/07/29 10:27:38;;;;;;;3.25;1.88;;;27.60;25.10;;;;;;4957657;29;20668;-74
2022/07/29 10:30:07;;;;;;;2.58;1.42;;;28.10;21.90;;;;;;4957705;29;20213;-75
2022/07/29 10:32:51;;;;;;;4.80;1.70;;;28.40;18.80;;;;;;4957778;29;20203;-75
2022/07/29 10:35:45;;;;;;;2.03;1.52;;;29.40;12.90;;;;;;4957329;29;20261;-75
2022/07/29 10:38:29;;;;;;;2.90;1.52;;;29.70;2.80;;;;;;4957535;29;20242;-74
2022/07/29 10:44:04;;;;;;;3.75;1.70;;;29.30;3.80;;;;;;4898227;29;20295;-75
2022/07/29 10:46:36;;;;;;;3.03;1.55;;;30.30;1.40;;;;;;4898050;29;20240;-75
2022/07/29 10:49:12;;;;;;;4.53;1.90;;;30.20;3.10;;;;;;4897658;29;20225;-75
2022/07/29 10:52:02;;;;;;;2.30;1.80;;;30.10;2.50;;;;;;4898144;29;20352;-75
2022/07/29 10:54:54;;;;;;;4.55;1.77;;;29.50;1.00;;;;;;4897716;29;20358;-74
2022/07/29 10:57:26;;;;;;;2.85;1.77;;;27.90;12.50;;;;;;4897746;29;20232;-74
2022/07/29 11:00:27;;;;;;;2.83;1.70;;;28.00;21.80;;;;;;4888629;29;20233;-74
2022/07/29 11:02:56;;;;;;;2.60;1.50;;;29.10;17.60;;;;;;4878783;29;20233;-74
2022/07/29 11:05:24;;;;;;;4.95;1.80;;;29.10;3.00;;;;;;4879118;29;20217;-74
2022/07/29 11:08:25;;;;;;;3.92;1.80;;;28.50;8.40;;;;;;4878906;29;20300;-74
2022/07/29 11:10:54;;;;;;;3.08;1.73;;;28.80;10.10;;;;;;4859142;29;20296;-74
2022/07/29 11:13:51;;;;;;;8.30;2.30;;;27.40;22.00;;;;;;4859984;29;20629;-73
2022/07/29 11:16:21;;;;;;;4.10;1.90;;;27.20;31.70;;;;;;4860210;29;20819;-74
2022/07/29 11:19:22;;;;;;;2.65;1.55;;;27.20;28.70;;;;;;4861305;29;20207;-74
2022/07/29 11:21:49;;;;;;;3.30;1.80;;;28.20;29.90;;;;;;4878294;29;20213;-74
2022/07/29 11:24:18;;;;;;;2.03;1.50;;;27.70;24.40;;;;;;4878667;29;20228;-74
2022/07/29 11:26:46;;;;;;;5.45;1.90;;;27.80;24.00;;;;;;4878683;29;20641;-74
2022/07/29 11:29:22;;;;;;;4.93;1.90;;;27.80;27.70;;;;;;4878653;29;20206;-74
2022/07/29 11:31:53;;;;;;;3.47;1.67;;;27.70;26.00;;;;;;4878026;29;20240;-74
2022/07/29 11:34:23;;;;;;;4.25;1.67;;;28.10;23.50;;;;;;4878597;29;20246;-74
2022/07/29 11:37:15;;;;;;;5.90;1.65;;;27.80;22.60;;;;;;4878393;29;20289;-74
2022/07/29 11:39:44;;;;;;;4.03;1.80;;;27.70;25.10;;;;;;4878400;29;20230;-74
2022/07/29 11:42:38;;;;;;;3.00;1.90;;;27.60;26.00;;;;;;4878095;29;20767;-74
2022/07/29 11:45:09;;;;;;;3.45;1.60;;;27.50;35.50;;;;;;4910933;29;20210;-74
2022/07/29 11:47:38;;;;;;;2.38;1.73;;;27.50;28.80;;;;;;4936583;29;20295;-74
2022/07/29 11:50:09;;;;;;;2.47;1.83;;;27.50;29.10;;;;;;4937105;29;20610;-73
2022/07/29 11:52:42;;;;;;;3.00;1.90;;;27.30;34.40;;;;;;4937076;29;20258;-76
2022/07/29 11:55:12;;;;;;;4.07;1.50;;;27.20;37.90;;;;;;4936739;29;20235;-74
2022/07/29 11:57:46;;;;;;;2.92;1.48;;;27.40;31.40;;;;;;4936446;29;20235;-74
2022/07/29 12:00:29;;;;;;;1.88;1.60;;;27.60;23.10;;;;;;4948223;29;20246;-74
2022/07/29 12:02:58;;;;;;;4.22;1.85;;;27.10;28.60;;;;;;4955753;29;20289;-73
2022/07/29 12:05:35;;;;;;;4.22;2.08;;;27.40;33.10;;;;;;4955736;29;20203;-74
2022/07/29 12:08:10;;;;;;;3.97;1.73;;;27.30;29.00;;;;;;4955585;29;20289;-74
2022/07/29 12:10:38;;;;;;;3.28;1.75;;;27.00;30.70;;;;;;4970677;28;20234;-74
2022/07/29 12:13:05;;;;;;;3.40;1.80;;;27.60;27.70;;;;;;4955524;29;20290;-73
2022/07/29 12:15:34;;;;;;;2.40;1.75;;;27.80;27.90;;;;;;4954960;29;20593;-74
2022/07/29 12:18:11;;;;;;;3.22;1.77;;;28.30;21.60;;;;;;4955472;29;20214;-74
2022/07/29 12:20:38;;;;;;;3.17;1.60;;;28.30;16.70;;;;;;4955293;28;20630;-74
2022/07/29 12:23:07;;;;;;;6.68;1.65;;;28.00;21.70;;;;;;4955449;29;20216;-74
2022/07/29 12:25:36;;;;;;;4.60;1.50;;;27.80;18.10;;;;;;4955791;29;20251;-74
2022/07/29 12:28:05;;;;;;;5.32;1.95;;;28.30;19.20;;;;;;4955555;29;20282;-74
2022/07/29 12:30:39;;;;;;;3.30;1.60;;;28.80;14.90;;;;;;4955105;29;20246;-74
2022/07/29 12:33:19;;;;;;;3.10;1.70;;;28.70;6.70;;;;;;4955188;29;20297;-74
2022/07/29 12:35:47;;;;;;;2.80;1.40;;;28.90;4.40;;;;;;4955578;29;20235;-74
2022/07/29 12:38:16;;;;;;;3.75;1.60;;;29.30;4.50;;;;;;4955059;29;20671;-74
2022/07/29 12:40:43;;;;;;;3.80;1.80;;;29.80;1.00;;;;;;4955476;29;20210;-74
2022/07/29 12:43:12;;;;;;;3.42;1.80;;;30.00;1.00;;;;;;4955381;29;20290;-74
2022/07/29 12:45:43;;;;;;;4.22;1.77;;;29.50;1.00;;;;;;4954520;29;20234;-74
2022/07/29 12:48:10;;;;;;;3.20;1.90;;;29.40;3.60;;;;;;4955018;29;20249;-74
2022/07/29 12:50:38;;;;;;;3.03;1.60;;;28.80;3.20;;;;;;4955097;29;20238;-74
2022/07/29 12:53:13;;;;;;;4.03;1.75;;;30.00;3.50;;;;;;4955131;29;20236;-74
2022/07/29 12:55:44;;;;;;;4.72;1.70;;;29.80;1.00;;;;;;4954648;29;20206;-74
2022/07/29 12:58:11;;;;;;;2.80;1.83;;;30.60;1.00;;;;;;4954392;29;20234;-74
2022/07/29 13:00:38;;;;;;;2.83;1.77;;;31.30;1.00;;;;;;4954754;29;20274;-74
2022/07/29 13:03:07;;;;;;;2.70;1.80;;;31.90;1.00;;;;;;4954805;29;20242;-74
2022/07/29 13:05:41;;;;;;;2.00;1.70;;;32.70;1.00;;;;;;4954925;29;20230;-74